sensor_id;sensor_type;location;lat;lon;timestamp;temperature;humidity
26326;DHT22;14032;52.510;7.342;2023-04-25T00:00:33;7.10;99.90
26326;DHT22;14032;52.510;7.342;2023-04-25T00:02:59;7.10;99.90
26326;DHT22;14032;52.510;7.342;2023-04-25T00:05:25;7.10;99.90
26326;DHT22;14032;52.510;7.342;2023-04-25T00:07:51;7.10;99.90
26326;DHT22;14032;52.510;7.342;2023-04-25T00:10:16;7.10;99.90
26326;DHT22;14032;52.510;7.342;2023-04-25T00:12:41;7.10;99.90
26326;DHT22;14032;52.510;7.342;2023-04-25T00:15:07;7.20;99.90
26326;DHT22;14032;52.510;7.342;2023-04-25T00:17:33;7.10;99.90
26326;DHT22;14032;52.510;7.342;2023-04-25T00:20:00;7.00;99.90
26326;DHT22;14032;52.510;7.342;2023-04-25T00:22:26;7.00;99.90
26326;DHT22;14032;52.510;7.342;2023-04-25T00:24:51;7.00;99.90
26326;DHT22;14032;52.510;7.342;2023-04-25T00:27:18;6.90;99.90
26326;DHT22;14032;52.510;7.342;2023-04-25T00:29:44;6.90;99.90
26326;DHT22;14032;52.510;7.342;2023-04-25T00:32:09;6.90;99.90
26326;DHT22;14032;52.510;7.342;2023-04-25T00:34:35;6.90;99.90
26326;DHT22;14032;52.510;7.342;2023-04-25T00:37:01;6.90;99.90
26326;DHT22;14032;52.510;7.342;2023-04-25T00:39:30;6.90;99.90
26326;DHT22;14032;52.510;7.342;2023-04-25T00:41:55;6.80;99.90
26326;DHT22;14032;52.510;7.342;2023-04-25T00:44:21;6.80;99.90
26326;DHT22;14032;52.510;7.342;2023-04-25T00:46:47;6.70;99.90
26326;DHT22;14032;52.510;7.342;2023-04-25T00:49:14;6.70;99.90
26326;DHT22;14032;52.510;7.342;2023-04-25T00:51:42;6.60;99.90
26326;DHT22;14032;52.510;7.342;2023-04-25T00:54:09;6.60;99.90
26326;DHT22;14032;52.510;7.342;2023-04-25T00:56:35;6.60;99.90
26326;DHT22;14032;52.510;7.342;2023-04-25T00:59:00;6.60;99.90
26326;DHT22;14032;52.510;7.342;2023-04-25T01:01:26;6.60;99.90
26326;DHT22;14032;52.510;7.342;2023-04-25T01:03:52;6.60;99.90
26326;DHT22;14032;52.510;7.342;2023-04-25T01:06:18;6.60;99.90
26326;DHT22;14032;52.510;7.342;2023-04-25T01:08:44;6.60;99.90
26326;DHT22;14032;52.510;7.342;2023-04-25T01:11:09;6.60;99.90
26326;DHT22;14032;52.510;7.342;2023-04-25T01:13:35;6.60;99.90
26326;DHT22;14032;52.510;7.342;2023-04-25T01:16:01;6.60;99.90
26326;DHT22;14032;52.510;7.342;2023-04-25T01:18:27;6.60;99.90
26326;DHT22;14032;52.510;7.342;2023-04-25T01:20:53;6.60;99.90
26326;DHT22;14032;52.510;7.342;2023-04-25T01:23:22;6.60;99.90
26326;DHT22;14032;52.510;7.342;2023-04-25T01:25:48;6.60;99.90
26326;DHT22;14032;52.510;7.342;2023-04-25T01:28:14;6.50;99.90
26326;DHT22;14032;52.510;7.342;2023-04-25T01:30:39;6.50;99.90
26326;DHT22;14032;52.510;7.342;2023-04-25T01:33:05;6.50;99.90
26326;DHT22;14032;52.510;7.342;2023-04-25T01:35:32;6.50;99.90
26326;DHT22;14032;52.510;7.342;2023-04-25T01:37:58;6.50;99.90
26326;DHT22;14032;52.510;7.342;2023-04-25T01:40:23;6.50;99.90
26326;DHT22;14032;52.510;7.342;2023-04-25T01:42:49;6.50;99.90
26326;DHT22;14032;52.510;7.342;2023-04-25T01:45:15;6.40;99.90
26326;DHT22;14032;52.510;7.342;2023-04-25T01:47:41;6.40;99.90
26326;DHT22;14032;52.510;7.342;2023-04-25T01:50:09;6.40;99.90
26326;DHT22;14032;52.510;7.342;2023-04-25T01:52:35;6.40;99.90
26326;DHT22;14032;52.510;7.342;2023-04-25T01:55:01;6.40;99.90
26326;DHT22;14032;52.510;7.342;2023-04-25T01:57:26;6.40;99.90
26326;DHT22;14032;52.510;7.342;2023-04-25T01:59:54;6.40;99.90
26326;DHT22;14032;52.510;7.342;2023-04-25T02:02:22;6.30;99.90
26326;DHT22;14032;52.510;7.342;2023-04-25T02:04:47;6.30;99.90
26326;DHT22;14032;52.510;7.342;2023-04-25T02:07:13;6.30;99.90
26326;DHT22;14032;52.510;7.342;2023-04-25T02:09:38;6.30;99.90
26326;DHT22;14032;52.510;7.342;2023-04-25T02:12:04;6.20;99.90
26326;DHT22;14032;52.510;7.342;2023-04-25T02:14:29;6.20;99.90
26326;DHT22;14032;52.510;7.342;2023-04-25T02:16:55;6.20;99.90
26326;DHT22;14032;52.510;7.342;2023-04-25T02:19:20;6.10;99.90
26326;DHT22;14032;52.510;7.342;2023-04-25T02:21:46;6.10;99.90
26326;DHT22;14032;52.510;7.342;2023-04-25T02:24:11;6.00;99.90
26326;DHT22;14032;52.510;7.342;2023-04-25T02:26:37;6.00;99.90
26326;DHT22;14032;52.510;7.342;2023-04-25T02:29:02;6.00;99.90
26326;DHT22;14032;52.510;7.342;2023-04-25T02:31:28;6.00;99.90
26326;DHT22;14032;52.510;7.342;2023-04-25T02:33:53;6.00;99.90
26326;DHT22;14032;52.510;7.342;2023-04-25T02:36:19;6.00;99.90
26326;DHT22;14032;52.510;7.342;2023-04-25T02:38:44;6.00;99.90
26326;DHT22;14032;52.510;7.342;2023-04-25T02:41:10;6.10;99.90
26326;DHT22;14032;52.510;7.342;2023-04-25T02:43:35;6.00;99.90
26326;DHT22;14032;52.510;7.342;2023-04-25T02:46:01;6.00;99.90
26326;DHT22;14032;52.510;7.342;2023-04-25T02:48:26;6.00;99.90
26326;DHT22;14032;52.510;7.342;2023-04-25T02:50:52;5.90;99.90
26326;DHT22;14032;52.510;7.342;2023-04-25T02:53:17;5.90;99.90
26326;DHT22;14032;52.510;7.342;2023-04-25T02:55:42;5.90;99.90
26326;DHT22;14032;52.510;7.342;2023-04-25T02:58:08;5.90;99.90
26326;DHT22;14032;52.510;7.342;2023-04-25T03:00:33;5.90;99.90
26326;DHT22;14032;52.510;7.342;2023-04-25T03:02:59;5.90;99.90
26326;DHT22;14032;52.510;7.342;2023-04-25T03:05:25;5.90;99.90
26326;DHT22;14032;52.510;7.342;2023-04-25T03:07:50;5.90;99.90
26326;DHT22;14032;52.510;7.342;2023-04-25T03:10:16;5.90;99.90
26326;DHT22;14032;52.510;7.342;2023-04-25T03:12:41;5.90;99.90
26326;DHT22;14032;52.510;7.342;2023-04-25T03:15:07;5.90;99.90
26326;DHT22;14032;52.510;7.342;2023-04-25T03:17:32;5.90;99.90
26326;DHT22;14032;52.510;7.342;2023-04-25T03:19:58;5.90;99.90
26326;DHT22;14032;52.510;7.342;2023-04-25T03:22:24;5.90;99.90
26326;DHT22;14032;52.510;7.342;2023-04-25T03:24:50;5.80;99.90
26326;DHT22;14032;52.510;7.342;2023-04-25T03:27:15;5.90;99.90
26326;DHT22;14032;52.510;7.342;2023-04-25T03:29:41;5.90;99.90
26326;DHT22;14032;52.510;7.342;2023-04-25T03:32:06;5.90;99.90
26326;DHT22;14032;52.510;7.342;2023-04-25T03:34:32;5.90;99.90
26326;DHT22;14032;52.510;7.342;2023-04-25T03:36:57;5.90;99.90
26326;DHT22;14032;52.510;7.342;2023-04-25T03:39:23;5.90;99.90
26326;DHT22;14032;52.510;7.342;2023-04-25T03:41:48;5.80;99.90
26326;DHT22;14032;52.510;7.342;2023-04-25T03:44:14;5.80;99.90
26326;DHT22;14032;52.510;7.342;2023-04-25T03:46:39;5.80;99.90
26326;DHT22;14032;52.510;7.342;2023-04-25T03:49:05;5.90;99.90
26326;DHT22;14032;52.510;7.342;2023-04-25T03:51:30;5.90;99.90
26326;DHT22;14032;52.510;7.342;2023-04-25T03:53:56;5.90;99.90
26326;DHT22;14032;52.510;7.342;2023-04-25T03:56:22;5.80;99.90
26326;DHT22;14032;52.510;7.342;2023-04-25T03:58:47;5.90;99.90
26326;DHT22;14032;52.510;7.342;2023-04-25T04:01:13;5.80;99.90
26326;DHT22;14032;52.510;7.342;2023-04-25T04:03:38;5.80;99.90
26326;DHT22;14032;52.510;7.342;2023-04-25T04:06:04;5.80;99.90
26326;DHT22;14032;52.510;7.342;2023-04-25T04:08:31;5.80;99.90
26326;DHT22;14032;52.510;7.342;2023-04-25T04:10:57;5.80;99.90
26326;DHT22;14032;52.510;7.342;2023-04-25T04:13:22;5.80;99.90
26326;DHT22;14032;52.510;7.342;2023-04-25T04:15:48;5.80;99.90
26326;DHT22;14032;52.510;7.342;2023-04-25T04:18:13;5.80;99.90
26326;DHT22;14032;52.510;7.342;2023-04-25T04:20:38;5.80;99.90
26326;DHT22;14032;52.510;7.342;2023-04-25T04:23:04;5.80;99.90
26326;DHT22;14032;52.510;7.342;2023-04-25T04:25:30;5.80;99.90
26326;DHT22;14032;52.510;7.342;2023-04-25T04:27:56;5.80;99.90
26326;DHT22;14032;52.510;7.342;2023-04-25T04:30:22;5.80;99.90
26326;DHT22;14032;52.510;7.342;2023-04-25T04:32:50;5.70;99.90
26326;DHT22;14032;52.510;7.342;2023-04-25T04:35:15;5.70;99.90
26326;DHT22;14032;52.510;7.342;2023-04-25T04:37:41;5.70;99.90
26326;DHT22;14032;52.510;7.342;2023-04-25T04:40:06;5.70;99.90
26326;DHT22;14032;52.510;7.342;2023-04-25T04:42:32;5.70;99.90
26326;DHT22;14032;52.510;7.342;2023-04-25T04:44:58;5.70;99.90
26326;DHT22;14032;52.510;7.342;2023-04-25T04:47:24;5.70;99.90
26326;DHT22;14032;52.510;7.342;2023-04-25T04:49:50;5.70;99.90
26326;DHT22;14032;52.510;7.342;2023-04-25T04:52:16;5.70;99.90
26326;DHT22;14032;52.510;7.342;2023-04-25T04:54:41;5.70;99.90
26326;DHT22;14032;52.510;7.342;2023-04-25T04:57:07;5.70;99.90
26326;DHT22;14032;52.510;7.342;2023-04-25T04:59:32;5.80;99.90
26326;DHT22;14032;52.510;7.342;2023-04-25T05:01:58;5.70;99.90
26326;DHT22;14032;52.510;7.342;2023-04-25T05:04:23;5.80;99.90
26326;DHT22;14032;52.510;7.342;2023-04-25T05:06:49;5.80;99.90
26326;DHT22;14032;52.510;7.342;2023-04-25T05:09:15;5.80;99.90
26326;DHT22;14032;52.510;7.342;2023-04-25T05:11:40;5.90;99.90
26326;DHT22;14032;52.510;7.342;2023-04-25T05:14:06;5.80;99.90
26326;DHT22;14032;52.510;7.342;2023-04-25T05:16:31;5.80;99.90
26326;DHT22;14032;52.510;7.342;2023-04-25T05:18:57;5.80;99.90
26326;DHT22;14032;52.510;7.342;2023-04-25T05:21:22;5.80;99.90
26326;DHT22;14032;52.510;7.342;2023-04-25T05:23:48;5.80;99.90
26326;DHT22;14032;52.510;7.342;2023-04-25T05:26:13;5.80;99.90
26326;DHT22;14032;52.510;7.342;2023-04-25T05:28:42;5.80;99.90
26326;DHT22;14032;52.510;7.342;2023-04-25T05:31:08;5.80;99.90
26326;DHT22;14032;52.510;7.342;2023-04-25T05:33:35;5.80;99.90
26326;DHT22;14032;52.510;7.342;2023-04-25T05:36:00;5.90;99.90
26326;DHT22;14032;52.510;7.342;2023-04-25T05:38:26;5.90;99.90
26326;DHT22;14032;52.510;7.342;2023-04-25T05:40:51;5.90;99.90
26326;DHT22;14032;52.510;7.342;2023-04-25T05:43:17;5.90;99.90
26326;DHT22;14032;52.510;7.342;2023-04-25T05:45:42;5.90;99.90
26326;DHT22;14032;52.510;7.342;2023-04-25T05:48:08;5.90;99.90
26326;DHT22;14032;52.510;7.342;2023-04-25T05:50:33;6.00;99.90
26326;DHT22;14032;52.510;7.342;2023-04-25T05:52:59;6.00;99.90
26326;DHT22;14032;52.510;7.342;2023-04-25T05:55:24;6.00;99.90
26326;DHT22;14032;52.510;7.342;2023-04-25T05:57:50;6.00;99.90
26326;DHT22;14032;52.510;7.342;2023-04-25T06:00:15;6.00;99.90
26326;DHT22;14032;52.510;7.342;2023-04-25T06:02:44;6.10;99.90
26326;DHT22;14032;52.510;7.342;2023-04-25T06:05:12;6.10;99.90
26326;DHT22;14032;52.510;7.342;2023-04-25T06:07:41;6.20;99.90
26326;DHT22;14032;52.510;7.342;2023-04-25T06:10:07;6.20;99.90
26326;DHT22;14032;52.510;7.342;2023-04-25T06:12:33;6.20;99.90
26326;DHT22;14032;52.510;7.342;2023-04-25T06:14:59;6.20;99.90
26326;DHT22;14032;52.510;7.342;2023-04-25T06:17:24;6.30;99.90
26326;DHT22;14032;52.510;7.342;2023-04-25T06:19:50;6.20;99.90
26326;DHT22;14032;52.510;7.342;2023-04-25T06:22:15;6.30;99.90
26326;DHT22;14032;52.510;7.342;2023-04-25T06:24:41;6.30;99.90
26326;DHT22;14032;52.510;7.342;2023-04-25T06:27:06;6.30;99.90
26326;DHT22;14032;52.510;7.342;2023-04-25T06:29:32;6.30;99.90
26326;DHT22;14032;52.510;7.342;2023-04-25T06:31:57;6.30;99.90
26326;DHT22;14032;52.510;7.342;2023-04-25T06:34:23;6.40;99.90
26326;DHT22;14032;52.510;7.342;2023-04-25T06:36:48;6.40;99.90
26326;DHT22;14032;52.510;7.342;2023-04-25T06:39:14;6.40;99.90
26326;DHT22;14032;52.510;7.342;2023-04-25T06:41:39;6.50;99.90
26326;DHT22;14032;52.510;7.342;2023-04-25T06:44:05;6.50;99.90
26326;DHT22;14032;52.510;7.342;2023-04-25T06:46:31;6.50;99.90
26326;DHT22;14032;52.510;7.342;2023-04-25T06:48:56;6.60;99.90
26326;DHT22;14032;52.510;7.342;2023-04-25T06:51:22;6.60;99.90
26326;DHT22;14032;52.510;7.342;2023-04-25T06:53:47;6.60;99.90
26326;DHT22;14032;52.510;7.342;2023-04-25T06:56:13;6.80;99.90
26326;DHT22;14032;52.510;7.342;2023-04-25T06:58:38;6.90;99.90
26326;DHT22;14032;52.510;7.342;2023-04-25T07:01:04;7.10;99.90
26326;DHT22;14032;52.510;7.342;2023-04-25T07:03:29;7.10;99.90
26326;DHT22;14032;52.510;7.342;2023-04-25T07:05:55;7.20;99.90
26326;DHT22;14032;52.510;7.342;2023-04-25T07:08:21;7.40;99.90
26326;DHT22;14032;52.510;7.342;2023-04-25T07:10:46;7.50;99.90
26326;DHT22;14032;52.510;7.342;2023-04-25T07:13:12;7.60;99.90
26326;DHT22;14032;52.510;7.342;2023-04-25T07:15:37;7.80;99.90
26326;DHT22;14032;52.510;7.342;2023-04-25T07:18:03;8.10;99.90
26326;DHT22;14032;52.510;7.342;2023-04-25T07:20:28;8.10;99.90
26326;DHT22;14032;52.510;7.342;2023-04-25T07:22:56;8.00;99.90
26326;DHT22;14032;52.510;7.342;2023-04-25T07:25:22;7.90;99.90
26326;DHT22;14032;52.510;7.342;2023-04-25T07:27:47;7.90;99.90
26326;DHT22;14032;52.510;7.342;2023-04-25T07:30:13;8.00;99.90
26326;DHT22;14032;52.510;7.342;2023-04-25T07:32:39;8.20;99.90
26326;DHT22;14032;52.510;7.342;2023-04-25T07:35:05;8.30;99.90
26326;DHT22;14032;52.510;7.342;2023-04-25T07:37:32;8.40;99.90
26326;DHT22;14032;52.510;7.342;2023-04-25T07:39:58;8.40;99.90
26326;DHT22;14032;52.510;7.342;2023-04-25T07:42:24;8.40;99.90
26326;DHT22;14032;52.510;7.342;2023-04-25T07:44:49;8.50;99.90
26326;DHT22;14032;52.510;7.342;2023-04-25T07:47:16;8.50;99.90
26326;DHT22;14032;52.510;7.342;2023-04-25T07:49:44;8.40;99.90
26326;DHT22;14032;52.510;7.342;2023-04-25T07:52:10;8.20;99.90
26326;DHT22;14032;52.510;7.342;2023-04-25T07:54:36;8.10;99.90
26326;DHT22;14032;52.510;7.342;2023-04-25T07:57:02;8.10;99.90
26326;DHT22;14032;52.510;7.342;2023-04-25T07:59:27;8.10;99.90
26326;DHT22;14032;52.510;7.342;2023-04-25T08:01:53;8.00;99.90
26326;DHT22;14032;52.510;7.342;2023-04-25T08:04:18;8.00;99.90
26326;DHT22;14032;52.510;7.342;2023-04-25T08:06:44;8.10;99.90
26326;DHT22;14032;52.510;7.342;2023-04-25T08:09:10;8.30;99.90
26326;DHT22;14032;52.510;7.342;2023-04-25T08:11:36;8.40;99.90
26326;DHT22;14032;52.510;7.342;2023-04-25T08:14:02;8.50;99.90
26326;DHT22;14032;52.510;7.342;2023-04-25T08:16:27;8.60;99.90
26326;DHT22;14032;52.510;7.342;2023-04-25T08:18:53;8.60;99.90
26326;DHT22;14032;52.510;7.342;2023-04-25T08:21:18;8.60;99.90
26326;DHT22;14032;52.510;7.342;2023-04-25T08:23:44;8.70;99.90
26326;DHT22;14032;52.510;7.342;2023-04-25T08:26:10;8.80;99.90
26326;DHT22;14032;52.510;7.342;2023-04-25T08:28:35;8.90;99.90
26326;DHT22;14032;52.510;7.342;2023-04-25T08:31:01;9.00;99.90
26326;DHT22;14032;52.510;7.342;2023-04-25T08:33:26;9.00;99.90
26326;DHT22;14032;52.510;7.342;2023-04-25T08:35:52;9.10;99.90
26326;DHT22;14032;52.510;7.342;2023-04-25T08:38:18;9.00;99.90
26326;DHT22;14032;52.510;7.342;2023-04-25T08:40:43;9.00;99.90
26326;DHT22;14032;52.510;7.342;2023-04-25T08:43:09;9.00;99.90
26326;DHT22;14032;52.510;7.342;2023-04-25T08:45:41;9.10;99.90
26326;DHT22;14032;52.510;7.342;2023-04-25T08:48:07;9.10;99.90
26326;DHT22;14032;52.510;7.342;2023-04-25T08:50:35;9.00;99.90
26326;DHT22;14032;52.510;7.342;2023-04-25T08:53:01;9.00;99.90
26326;DHT22;14032;52.510;7.342;2023-04-25T08:55:29;9.00;99.90
26326;DHT22;14032;52.510;7.342;2023-04-25T08:57:55;9.10;99.90
26326;DHT22;14032;52.510;7.342;2023-04-25T09:00:21;9.30;99.90
26326;DHT22;14032;52.510;7.342;2023-04-25T09:02:47;9.30;99.90
26326;DHT22;14032;52.510;7.342;2023-04-25T09:05:13;9.30;99.90
26326;DHT22;14032;52.510;7.342;2023-04-25T09:07:39;9.50;99.90
26326;DHT22;14032;52.510;7.342;2023-04-25T09:10:04;9.50;99.90
26326;DHT22;14032;52.510;7.342;2023-04-25T09:12:30;9.40;99.90
26326;DHT22;14032;52.510;7.342;2023-04-25T09:15:09;9.40;99.90
26326;DHT22;14032;52.510;7.342;2023-04-25T09:17:35;9.50;99.90
26326;DHT22;14032;52.510;7.342;2023-04-25T09:20:09;9.40;99.90
26326;DHT22;14032;52.510;7.342;2023-04-25T09:22:36;9.30;99.90
26326;DHT22;14032;52.510;7.342;2023-04-25T09:25:11;9.30;99.90
26326;DHT22;14032;52.510;7.342;2023-04-25T09:27:42;9.50;99.90
26326;DHT22;14032;52.510;7.342;2023-04-25T09:30:15;9.60;99.90
26326;DHT22;14032;52.510;7.342;2023-04-25T09:32:41;9.60;99.90
26326;DHT22;14032;52.510;7.342;2023-04-25T09:35:07;9.60;99.90
26326;DHT22;14032;52.510;7.342;2023-04-25T09:37:33;9.80;99.90
26326;DHT22;14032;52.510;7.342;2023-04-25T09:40:00;9.90;99.90
26326;DHT22;14032;52.510;7.342;2023-04-25T09:42:31;9.90;99.90
26326;DHT22;14032;52.510;7.342;2023-04-25T09:44:57;9.80;99.90
26326;DHT22;14032;52.510;7.342;2023-04-25T09:47:23;9.70;99.90
26326;DHT22;14032;52.510;7.342;2023-04-25T09:49:50;9.50;99.90
26326;DHT22;14032;52.510;7.342;2023-04-25T09:52:19;9.50;99.90
26326;DHT22;14032;52.510;7.342;2023-04-25T09:54:45;9.30;99.90
26326;DHT22;14032;52.510;7.342;2023-04-25T09:57:12;9.20;99.90
26326;DHT22;14032;52.510;7.342;2023-04-25T09:59:39;9.10;99.90
26326;DHT22;14032;52.510;7.342;2023-04-25T10:02:07;9.00;99.90
26326;DHT22;14032;52.510;7.342;2023-04-25T10:04:33;8.80;99.90
26326;DHT22;14032;52.510;7.342;2023-04-25T10:06:59;8.90;99.90
26326;DHT22;14032;52.510;7.342;2023-04-25T10:09:25;8.90;99.90
26326;DHT22;14032;52.510;7.342;2023-04-25T10:11:51;8.80;99.90
26326;DHT22;14032;52.510;7.342;2023-04-25T10:14:17;8.90;99.90
26326;DHT22;14032;52.510;7.342;2023-04-25T10:16:43;9.10;99.90
26326;DHT22;14032;52.510;7.342;2023-04-25T10:19:10;9.20;99.90
26326;DHT22;14032;52.510;7.342;2023-04-25T10:21:37;9.30;99.90
26326;DHT22;14032;52.510;7.342;2023-04-25T10:24:05;9.60;99.90
26326;DHT22;14032;52.510;7.342;2023-04-25T10:26:31;9.70;99.90
26326;DHT22;14032;52.510;7.342;2023-04-25T10:29:01;9.70;99.90
26326;DHT22;14032;52.510;7.342;2023-04-25T10:31:27;9.70;99.90
26326;DHT22;14032;52.510;7.342;2023-04-25T10:33:54;9.80;99.90
26326;DHT22;14032;52.510;7.342;2023-04-25T10:36:20;9.80;99.90
26326;DHT22;14032;52.510;7.342;2023-04-25T10:38:47;9.80;99.90
26326;DHT22;14032;52.510;7.342;2023-04-25T10:41:13;10.00;99.90
26326;DHT22;14032;52.510;7.342;2023-04-25T10:46:17;9.80;99.90
26326;DHT22;14032;52.510;7.342;2023-04-25T10:48:46;9.70;99.90
26326;DHT22;14032;52.510;7.342;2023-04-25T10:51:17;9.50;99.90
26326;DHT22;14032;52.510;7.342;2023-04-25T10:53:43;9.30;99.90
26326;DHT22;14032;52.510;7.342;2023-04-25T10:56:19;9.10;99.90
26326;DHT22;14032;52.510;7.342;2023-04-25T10:58:45;8.90;99.90
26326;DHT22;14032;52.510;7.342;2023-04-25T11:01:11;8.50;99.90
26326;DHT22;14032;52.510;7.342;2023-04-25T11:03:40;8.10;99.90
26326;DHT22;14032;52.510;7.342;2023-04-25T11:06:08;7.70;99.90
26326;DHT22;14032;52.510;7.342;2023-04-25T11:08:40;7.50;99.90
26326;DHT22;14032;52.510;7.342;2023-04-25T11:11:11;7.20;99.90
26326;DHT22;14032;52.510;7.342;2023-04-25T11:13:37;7.00;99.90
26326;DHT22;14032;52.510;7.342;2023-04-25T11:16:02;6.90;99.90
26326;DHT22;14032;52.510;7.342;2023-04-25T11:18:28;6.80;99.90
26326;DHT22;14032;52.510;7.342;2023-04-25T11:20:53;6.70;99.90
26326;DHT22;14032;52.510;7.342;2023-04-25T11:23:19;6.70;99.90
26326;DHT22;14032;52.510;7.342;2023-04-25T11:25:44;6.80;99.90
26326;DHT22;14032;52.510;7.342;2023-04-25T11:28:10;6.90;99.90
26326;DHT22;14032;52.510;7.342;2023-04-25T11:30:35;6.90;99.90
26326;DHT22;14032;52.510;7.342;2023-04-25T11:33:01;7.00;99.90
26326;DHT22;14032;52.510;7.342;2023-04-25T11:35:28;7.30;99.90
26326;DHT22;14032;52.510;7.342;2023-04-25T11:37:53;7.60;99.90
26326;DHT22;14032;52.510;7.342;2023-04-25T11:40:19;7.90;99.90
26326;DHT22;14032;52.510;7.342;2023-04-25T11:42:45;8.20;99.90
26326;DHT22;14032;52.510;7.342;2023-04-25T11:45:12;8.40;99.90
26326;DHT22;14032;52.510;7.342;2023-04-25T11:47:38;8.50;99.90
26326;DHT22;14032;52.510;7.342;2023-04-25T11:50:04;8.50;99.90
26326;DHT22;14032;52.510;7.342;2023-04-25T11:52:40;8.20;99.90
26326;DHT22;14032;52.510;7.342;2023-04-25T11:55:10;7.90;99.90
26326;DHT22;14032;52.510;7.342;2023-04-25T11:57:37;7.60;99.90
26326;DHT22;14032;52.510;7.342;2023-04-25T12:00:10;7.30;99.90
26326;DHT22;14032;52.510;7.342;2023-04-25T12:02:36;7.10;99.90
26326;DHT22;14032;52.510;7.342;2023-04-25T12:05:02;7.00;99.90
26326;DHT22;14032;52.510;7.342;2023-04-25T12:07:29;6.90;99.90
26326;DHT22;14032;52.510;7.342;2023-04-25T12:09:55;6.90;99.90
26326;DHT22;14032;52.510;7.342;2023-04-25T12:12:21;7.00;99.90
26326;DHT22;14032;52.510;7.342;2023-04-25T12:14:47;7.10;99.90
26326;DHT22;14032;52.510;7.342;2023-04-25T12:17:16;7.10;99.90
26326;DHT22;14032;52.510;7.342;2023-04-25T12:19:42;7.20;99.90
26326;DHT22;14032;52.510;7.342;2023-04-25T12:22:23;7.40;99.90
26326;DHT22;14032;52.510;7.342;2023-04-25T12:24:48;7.50;99.90
26326;DHT22;14032;52.510;7.342;2023-04-25T12:27:14;7.70;99.90
26326;DHT22;14032;52.510;7.342;2023-04-25T12:29:51;7.80;99.90
26326;DHT22;14032;52.510;7.342;2023-04-25T12:32:17;7.90;99.90
26326;DHT22;14032;52.510;7.342;2023-04-25T12:34:43;8.00;99.90
26326;DHT22;14032;52.510;7.342;2023-04-25T12:37:10;8.20;99.90
26326;DHT22;14032;52.510;7.342;2023-04-25T12:39:35;8.50;99.90
26326;DHT22;14032;52.510;7.342;2023-04-25T12:42:01;8.60;99.90
26326;DHT22;14032;52.510;7.342;2023-04-25T12:44:27;8.80;99.90
26326;DHT22;14032;52.510;7.342;2023-04-25T12:46:52;9.00;99.90
26326;DHT22;14032;52.510;7.342;2023-04-25T12:49:19;9.10;99.90
26326;DHT22;14032;52.510;7.342;2023-04-25T12:51:45;9.20;99.90
26326;DHT22;14032;52.510;7.342;2023-04-25T12:54:10;9.10;99.90
26326;DHT22;14032;52.510;7.342;2023-04-25T12:56:36;8.80;99.90
26326;DHT22;14032;52.510;7.342;2023-04-25T12:59:02;8.50;99.90
26326;DHT22;14032;52.510;7.342;2023-04-25T13:01:30;8.30;99.90
26326;DHT22;14032;52.510;7.342;2023-04-25T13:03:56;8.20;99.90
26326;DHT22;14032;52.510;7.342;2023-04-25T13:06:21;8.20;99.90
26326;DHT22;14032;52.510;7.342;2023-04-25T13:08:47;8.10;99.90
26326;DHT22;14032;52.510;7.342;2023-04-25T13:11:13;7.90;99.90
26326;DHT22;14032;52.510;7.342;2023-04-25T13:13:40;7.90;99.90
26326;DHT22;14032;52.510;7.342;2023-04-25T13:16:06;7.80;99.90
26326;DHT22;14032;52.510;7.342;2023-04-25T13:18:32;7.70;99.90
26326;DHT22;14032;52.510;7.342;2023-04-25T13:20:58;7.70;99.90
26326;DHT22;14032;52.510;7.342;2023-04-25T13:23:25;7.70;99.90
26326;DHT22;14032;52.510;7.342;2023-04-25T13:25:51;7.60;99.90
26326;DHT22;14032;52.510;7.342;2023-04-25T13:28:23;7.60;99.90
26326;DHT22;14032;52.510;7.342;2023-04-25T13:30:49;7.60;99.90
26326;DHT22;14032;52.510;7.342;2023-04-25T13:33:14;7.70;99.90
26326;DHT22;14032;52.510;7.342;2023-04-25T13:35:40;7.70;99.90
26326;DHT22;14032;52.510;7.342;2023-04-25T13:38:06;7.80;99.90
26326;DHT22;14032;52.510;7.342;2023-04-25T13:40:32;7.90;99.90
26326;DHT22;14032;52.510;7.342;2023-04-25T13:42:57;8.00;99.90
26326;DHT22;14032;52.510;7.342;2023-04-25T13:45:26;8.00;99.90
26326;DHT22;14032;52.510;7.342;2023-04-25T13:47:54;8.10;99.90
26326;DHT22;14032;52.510;7.342;2023-04-25T13:50:20;8.20;99.90
26326;DHT22;14032;52.510;7.342;2023-04-25T13:52:45;8.40;99.90
26326;DHT22;14032;52.510;7.342;2023-04-25T13:55:11;8.60;99.90
26326;DHT22;14032;52.510;7.342;2023-04-25T13:57:36;8.80;99.90
26326;DHT22;14032;52.510;7.342;2023-04-25T14:00:03;9.10;99.90
26326;DHT22;14032;52.510;7.342;2023-04-25T14:02:34;9.20;99.90
26326;DHT22;14032;52.510;7.342;2023-04-25T14:04:59;9.40;99.90
26326;DHT22;14032;52.510;7.342;2023-04-25T14:07:25;9.50;99.90
26326;DHT22;14032;52.510;7.342;2023-04-25T14:09:51;9.50;99.90
26326;DHT22;14032;52.510;7.342;2023-04-25T14:12:16;9.40;99.90
26326;DHT22;14032;52.510;7.342;2023-04-25T14:14:42;9.30;99.90
26326;DHT22;14032;52.510;7.342;2023-04-25T14:17:08;9.40;99.90
26326;DHT22;14032;52.510;7.342;2023-04-25T14:19:34;9.40;99.90
26326;DHT22;14032;52.510;7.342;2023-04-25T14:21:59;9.60;99.90
26326;DHT22;14032;52.510;7.342;2023-04-25T14:24:25;9.60;99.90
26326;DHT22;14032;52.510;7.342;2023-04-25T14:26:51;9.50;99.90
26326;DHT22;14032;52.510;7.342;2023-04-25T14:29:16;9.60;99.90
26326;DHT22;14032;52.510;7.342;2023-04-25T14:31:42;9.60;99.90
26326;DHT22;14032;52.510;7.342;2023-04-25T14:34:07;9.60;99.90
26326;DHT22;14032;52.510;7.342;2023-04-25T14:36:33;9.60;99.90
26326;DHT22;14032;52.510;7.342;2023-04-25T14:38:59;9.60;99.90
26326;DHT22;14032;52.510;7.342;2023-04-25T14:41:25;9.60;99.90
26326;DHT22;14032;52.510;7.342;2023-04-25T14:43:51;9.70;99.90
26326;DHT22;14032;52.510;7.342;2023-04-25T14:46:16;9.70;99.90
26326;DHT22;14032;52.510;7.342;2023-04-25T14:48:42;9.60;99.90
26326;DHT22;14032;52.510;7.342;2023-04-25T14:51:07;9.50;99.90
26326;DHT22;14032;52.510;7.342;2023-04-25T14:53:33;9.60;99.90
26326;DHT22;14032;52.510;7.342;2023-04-25T14:55:59;9.50;99.90
26326;DHT22;14032;52.510;7.342;2023-04-25T14:58:24;9.50;99.90
26326;DHT22;14032;52.510;7.342;2023-04-25T15:00:50;9.40;99.90
26326;DHT22;14032;52.510;7.342;2023-04-25T15:03:16;9.40;99.90
26326;DHT22;14032;52.510;7.342;2023-04-25T15:05:42;9.40;99.90
26326;DHT22;14032;52.510;7.342;2023-04-25T15:08:07;9.30;99.90
26326;DHT22;14032;52.510;7.342;2023-04-25T15:10:33;9.20;99.90
26326;DHT22;14032;52.510;7.342;2023-04-25T15:12:59;9.30;99.90
26326;DHT22;14032;52.510;7.342;2023-04-25T15:15:24;9.30;99.90
26326;DHT22;14032;52.510;7.342;2023-04-25T15:17:50;9.20;99.90
26326;DHT22;14032;52.510;7.342;2023-04-25T15:20:15;9.00;99.90
26326;DHT22;14032;52.510;7.342;2023-04-25T15:22:41;8.70;99.90
26326;DHT22;14032;52.510;7.342;2023-04-25T15:25:07;8.60;99.90
26326;DHT22;14032;52.510;7.342;2023-04-25T15:27:34;8.50;99.90
26326;DHT22;14032;52.510;7.342;2023-04-25T15:30:06;8.60;99.90
26326;DHT22;14032;52.510;7.342;2023-04-25T15:32:32;8.80;99.90
26326;DHT22;14032;52.510;7.342;2023-04-25T15:34:57;8.90;99.90
26326;DHT22;14032;52.510;7.342;2023-04-25T15:37:23;9.10;99.90
26326;DHT22;14032;52.510;7.342;2023-04-25T15:39:50;9.00;99.90